EmailTwitter


Observations de surface / France / LFMP (07747)

Régions: Québec | Canada | États-Unis | Europe | France | UK | Ailleurs
Station
Affichage
Infos & localisation pour LFMP (07747) | Aide pour décoder les METARs

Observations prises le 2020-04-06 à 19H00 UTC à PERPIGNAN/RIVESA, FR (LFMP)

Température: 13.0 Celsius

Point de rosée: 7.0 Celsius

Humidité relative: 67%

Vents: Nord à 9 km/h ou 5 noeuds.

Pression au niveau moyen de la mer: 102.40 kilopascals.

Observation METAR:

LFMP 061900Z AUTO 01005KT 340V040 CAVOK 13/07 Q1024=